sensor_id;sensor_type;location;lat;lon;timestamp;P1;durP1;ratioP1;P2;durP2;ratioP2
8252;SDS011;61313;48.396;10.008;2023-03-05T00:01:28;40.40;;;22.80;;
8252;SDS011;61313;48.396;10.008;2023-03-05T00:03:57;32.40;;;19.50;;
8252;SDS011;61313;48.396;10.008;2023-03-05T00:06:24;41.77;;;23.00;;
8252;SDS011;61313;48.396;10.008;2023-03-05T00:08:52;36.40;;;21.60;;
8252;SDS011;61313;48.396;10.008;2023-03-05T00:11:19;40.63;;;21.80;;
8252;SDS011;61313;48.396;10.008;2023-03-05T00:13:44;31.73;;;20.63;;
8252;SDS011;61313;48.396;10.008;2023-03-05T00:16:11;38.80;;;21.60;;
8252;SDS011;61313;48.396;10.008;2023-03-05T00:18:39;44.00;;;24.37;;
8252;SDS011;61313;48.396;10.008;2023-03-05T00:21:12;37.10;;;21.40;;
8252;SDS011;61313;48.396;10.008;2023-03-05T00:23:45;35.23;;;20.40;;
8252;SDS011;61313;48.396;10.008;2023-03-05T00:26:11;43.63;;;23.70;;
8252;SDS011;61313;48.396;10.008;2023-03-05T00:28:36;39.00;;;21.70;;
8252;SDS011;61313;48.396;10.008;2023-03-05T00:31:02;41.13;;;22.97;;
8252;SDS011;61313;48.396;10.008;2023-03-05T00:33:27;38.83;;;21.87;;
8252;SDS011;61313;48.396;10.008;2023-03-05T00:35:53;36.00;;;23.43;;
8252;SDS011;61313;48.396;10.008;2023-03-05T00:38:18;42.43;;;21.20;;
8252;SDS011;61313;48.396;10.008;2023-03-05T00:40:44;40.13;;;22.67;;
8252;SDS011;61313;48.396;10.008;2023-03-05T00:43:09;33.57;;;20.40;;
8252;SDS011;61313;48.396;10.008;2023-03-05T00:45:35;40.80;;;21.80;;
8252;SDS011;61313;48.396;10.008;2023-03-05T00:48:01;39.53;;;21.50;;
8252;SDS011;61313;48.396;10.008;2023-03-05T00:50:28;36.50;;;20.80;;
8252;SDS011;61313;48.396;10.008;2023-03-05T00:52:53;39.87;;;21.30;;
8252;SDS011;61313;48.396;10.008;2023-03-05T00:55:19;37.30;;;21.53;;
8252;SDS011;61313;48.396;10.008;2023-03-05T00:57:44;39.97;;;22.30;;
8252;SDS011;61313;48.396;10.008;2023-03-05T01:00:10;37.17;;;20.20;;
8252;SDS011;61313;48.396;10.008;2023-03-05T01:02:37;45.13;;;22.03;;
8252;SDS011;61313;48.396;10.008;2023-03-05T01:05:02;34.73;;;20.67;;
8252;SDS011;61313;48.396;10.008;2023-03-05T01:07:28;35.00;;;19.93;;
8252;SDS011;61313;48.396;10.008;2023-03-05T01:09:54;37.10;;;23.07;;
8252;SDS011;61313;48.396;10.008;2023-03-05T01:12:19;38.83;;;20.53;;
8252;SDS011;61313;48.396;10.008;2023-03-05T01:14:44;36.10;;;21.53;;
8252;SDS011;61313;48.396;10.008;2023-03-05T01:17:10;33.20;;;20.67;;
8252;SDS011;61313;48.396;10.008;2023-03-05T01:19:35;36.03;;;21.20;;
8252;SDS011;61313;48.396;10.008;2023-03-05T01:22:02;35.60;;;21.03;;
8252;SDS011;61313;48.396;10.008;2023-03-05T01:24:27;39.03;;;19.87;;
8252;SDS011;61313;48.396;10.008;2023-03-05T01:26:54;36.70;;;20.67;;
8252;SDS011;61313;48.396;10.008;2023-03-05T01:29:20;34.93;;;19.67;;
8252;SDS011;61313;48.396;10.008;2023-03-05T01:31:45;33.83;;;20.33;;
8252;SDS011;61313;48.396;10.008;2023-03-05T01:34:11;36.83;;;20.60;;
8252;SDS011;61313;48.396;10.008;2023-03-05T01:36:39;40.77;;;21.13;;
8252;SDS011;61313;48.396;10.008;2023-03-05T01:39:05;36.63;;;20.40;;
8252;SDS011;61313;48.396;10.008;2023-03-05T01:41:31;38.63;;;21.07;;
8252;SDS011;61313;48.396;10.008;2023-03-05T01:43:58;31.67;;;19.57;;
8252;SDS011;61313;48.396;10.008;2023-03-05T01:46:28;38.70;;;20.37;;
8252;SDS011;61313;48.396;10.008;2023-03-05T01:51:44;33.70;;;21.00;;
8252;SDS011;61313;48.396;10.008;2023-03-05T01:54:16;38.27;;;19.50;;
8252;SDS011;61313;48.396;10.008;2023-03-05T01:56:45;38.27;;;20.47;;
8252;SDS011;61313;48.396;10.008;2023-03-05T01:59:14;57.17;;;23.10;;
8252;SDS011;61313;48.396;10.008;2023-03-05T02:01:42;37.00;;;20.20;;
8252;SDS011;61313;48.396;10.008;2023-03-05T02:04:10;42.60;;;20.93;;
8252;SDS011;61313;48.396;10.008;2023-03-05T02:06:40;36.93;;;21.30;;
8252;SDS011;61313;48.396;10.008;2023-03-05T02:09:07;37.07;;;20.97;;
8252;SDS011;61313;48.396;10.008;2023-03-05T02:11:33;35.57;;;20.87;;
8252;SDS011;61313;48.396;10.008;2023-03-05T02:14:00;34.20;;;20.13;;
8252;SDS011;61313;48.396;10.008;2023-03-05T02:16:27;35.37;;;20.63;;
8252;SDS011;61313;48.396;10.008;2023-03-05T02:18:59;33.00;;;19.10;;
8252;SDS011;61313;48.396;10.008;2023-03-05T02:21:27;30.97;;;19.37;;
8252;SDS011;61313;48.396;10.008;2023-03-05T02:24:00;34.03;;;19.70;;
8252;SDS011;61313;48.396;10.008;2023-03-05T02:26:25;37.50;;;20.10;;
8252;SDS011;61313;48.396;10.008;2023-03-05T02:28:52;37.30;;;21.50;;
8252;SDS011;61313;48.396;10.008;2023-03-05T02:31:22;32.80;;;18.63;;
8252;SDS011;61313;48.396;10.008;2023-03-05T02:33:49;36.17;;;19.03;;
8252;SDS011;61313;48.396;10.008;2023-03-05T02:36:15;32.73;;;19.80;;
8252;SDS011;61313;48.396;10.008;2023-03-05T02:38:42;28.33;;;17.57;;
8252;SDS011;61313;48.396;10.008;2023-03-05T02:41:09;32.57;;;19.17;;
8252;SDS011;61313;48.396;10.008;2023-03-05T02:43:35;31.10;;;18.77;;
8252;SDS011;61313;48.396;10.008;2023-03-05T02:46:00;35.93;;;20.50;;
8252;SDS011;61313;48.396;10.008;2023-03-05T02:48:26;32.13;;;19.70;;
8252;SDS011;61313;48.396;10.008;2023-03-05T02:50:51;41.17;;;22.43;;
8252;SDS011;61313;48.396;10.008;2023-03-05T02:53:17;33.90;;;19.67;;
8252;SDS011;61313;48.396;10.008;2023-03-05T02:55:45;37.23;;;19.70;;
8252;SDS011;61313;48.396;10.008;2023-03-05T02:58:13;34.33;;;20.23;;
8252;SDS011;61313;48.396;10.008;2023-03-05T03:00:39;32.80;;;20.20;;
8252;SDS011;61313;48.396;10.008;2023-03-05T03:03:05;33.60;;;19.33;;
8252;SDS011;61313;48.396;10.008;2023-03-05T03:05:30;35.97;;;19.40;;
8252;SDS011;61313;48.396;10.008;2023-03-05T03:07:56;40.67;;;21.13;;
8252;SDS011;61313;48.396;10.008;2023-03-05T03:10:21;39.23;;;20.03;;
8252;SDS011;61313;48.396;10.008;2023-03-05T03:12:47;35.57;;;19.50;;
8252;SDS011;61313;48.396;10.008;2023-03-05T03:15:13;33.93;;;18.80;;
8252;SDS011;61313;48.396;10.008;2023-03-05T03:17:41;35.40;;;21.70;;
8252;SDS011;61313;48.396;10.008;2023-03-05T03:20:08;34.20;;;19.23;;
8252;SDS011;61313;48.396;10.008;2023-03-05T03:22:37;34.47;;;19.80;;
8252;SDS011;61313;48.396;10.008;2023-03-05T03:25:03;35.33;;;20.20;;
8252;SDS011;61313;48.396;10.008;2023-03-05T03:27:29;35.40;;;20.40;;
8252;SDS011;61313;48.396;10.008;2023-03-05T03:29:54;32.60;;;18.90;;
8252;SDS011;61313;48.396;10.008;2023-03-05T03:32:20;36.87;;;19.70;;
8252;SDS011;61313;48.396;10.008;2023-03-05T03:34:45;34.37;;;20.27;;
8252;SDS011;61313;48.396;10.008;2023-03-05T03:37:12;33.17;;;20.37;;
8252;SDS011;61313;48.396;10.008;2023-03-05T03:39:38;35.40;;;18.67;;
8252;SDS011;61313;48.396;10.008;2023-03-05T03:42:04;37.73;;;19.53;;
8252;SDS011;61313;48.396;10.008;2023-03-05T03:44:29;31.23;;;17.87;;
8252;SDS011;61313;48.396;10.008;2023-03-05T03:46:54;33.90;;;19.00;;
8252;SDS011;61313;48.396;10.008;2023-03-05T03:49:21;38.27;;;19.83;;
8252;SDS011;61313;48.396;10.008;2023-03-05T03:51:48;37.67;;;20.27;;
8252;SDS011;61313;48.396;10.008;2023-03-05T03:54:15;30.27;;;19.00;;
8252;SDS011;61313;48.396;10.008;2023-03-05T03:56:42;31.77;;;20.40;;
8252;SDS011;61313;48.396;10.008;2023-03-05T03:59:07;39.10;;;20.57;;
8252;SDS011;61313;48.396;10.008;2023-03-05T04:01:33;33.83;;;19.97;;
8252;SDS011;61313;48.396;10.008;2023-03-05T04:03:58;36.63;;;18.80;;
8252;SDS011;61313;48.396;10.008;2023-03-05T04:06:24;29.50;;;18.27;;
8252;SDS011;61313;48.396;10.008;2023-03-05T04:08:49;35.77;;;17.80;;
8252;SDS011;61313;48.396;10.008;2023-03-05T04:11:15;30.00;;;19.10;;
8252;SDS011;61313;48.396;10.008;2023-03-05T04:13:43;31.87;;;18.13;;
8252;SDS011;61313;48.396;10.008;2023-03-05T04:16:09;32.07;;;18.93;;
8252;SDS011;61313;48.396;10.008;2023-03-05T04:18:34;36.90;;;18.50;;
8252;SDS011;61313;48.396;10.008;2023-03-05T04:21:00;28.47;;;18.93;;
8252;SDS011;61313;48.396;10.008;2023-03-05T04:23:26;38.87;;;19.63;;
8252;SDS011;61313;48.396;10.008;2023-03-05T04:25:51;34.07;;;18.13;;
8252;SDS011;61313;48.396;10.008;2023-03-05T04:28:17;28.43;;;18.00;;
8252;SDS011;61313;48.396;10.008;2023-03-05T04:30:42;40.00;;;18.80;;
8252;SDS011;61313;48.396;10.008;2023-03-05T04:33:08;32.07;;;16.50;;
8252;SDS011;61313;48.396;10.008;2023-03-05T04:35:33;33.43;;;19.27;;
8252;SDS011;61313;48.396;10.008;2023-03-05T04:37:59;36.60;;;19.27;;
8252;SDS011;61313;48.396;10.008;2023-03-05T04:40:24;39.73;;;17.90;;
8252;SDS011;61313;48.396;10.008;2023-03-05T04:42:49;36.70;;;18.37;;
8252;SDS011;61313;48.396;10.008;2023-03-05T04:45:15;30.00;;;17.03;;
8252;SDS011;61313;48.396;10.008;2023-03-05T04:47:41;46.43;;;20.53;;
8252;SDS011;61313;48.396;10.008;2023-03-05T04:50:07;35.87;;;19.27;;
8252;SDS011;61313;48.396;10.008;2023-03-05T04:52:33;34.43;;;19.27;;
8252;SDS011;61313;48.396;10.008;2023-03-05T04:54:59;28.63;;;17.03;;
8252;SDS011;61313;48.396;10.008;2023-03-05T04:57:24;25.47;;;16.47;;
8252;SDS011;61313;48.396;10.008;2023-03-05T04:59:50;34.33;;;17.60;;
8252;SDS011;61313;48.396;10.008;2023-03-05T05:02:15;33.40;;;17.77;;
8252;SDS011;61313;48.396;10.008;2023-03-05T05:04:40;31.13;;;16.93;;
8252;SDS011;61313;48.396;10.008;2023-03-05T05:07:09;33.70;;;19.10;;
8252;SDS011;61313;48.396;10.008;2023-03-05T05:09:35;30.73;;;18.10;;
8252;SDS011;61313;48.396;10.008;2023-03-05T05:12:02;31.40;;;17.73;;
8252;SDS011;61313;48.396;10.008;2023-03-05T05:14:28;36.67;;;20.00;;
8252;SDS011;61313;48.396;10.008;2023-03-05T05:16:53;33.07;;;18.17;;
8252;SDS011;61313;48.396;10.008;2023-03-05T05:19:18;33.13;;;20.27;;
8252;SDS011;61313;48.396;10.008;2023-03-05T05:21:44;33.83;;;18.23;;
8252;SDS011;61313;48.396;10.008;2023-03-05T05:24:09;33.27;;;18.53;;
8252;SDS011;61313;48.396;10.008;2023-03-05T05:26:35;35.17;;;18.27;;
8252;SDS011;61313;48.396;10.008;2023-03-05T05:29:00;26.37;;;17.40;;
8252;SDS011;61313;48.396;10.008;2023-03-05T05:31:25;29.40;;;17.87;;
8252;SDS011;61313;48.396;10.008;2023-03-05T05:33:51;32.57;;;16.50;;
8252;SDS011;61313;48.396;10.008;2023-03-05T05:36:17;30.53;;;22.13;;
8252;SDS011;61313;48.396;10.008;2023-03-05T05:38:46;27.30;;;16.90;;
8252;SDS011;61313;48.396;10.008;2023-03-05T05:41:13;34.10;;;18.17;;
8252;SDS011;61313;48.396;10.008;2023-03-05T05:43:40;48.73;;;19.40;;
8252;SDS011;61313;48.396;10.008;2023-03-05T05:46:06;16.37;;;10.10;;
8252;SDS011;61313;48.396;10.008;2023-03-05T05:48:34;23.53;;;13.13;;
8252;SDS011;61313;48.396;10.008;2023-03-05T05:51:04;32.40;;;16.77;;
8252;SDS011;61313;48.396;10.008;2023-03-05T05:53:31;32.13;;;16.97;;
8252;SDS011;61313;48.396;10.008;2023-03-05T05:55:57;40.23;;;17.80;;
8252;SDS011;61313;48.396;10.008;2023-03-05T05:58:23;42.20;;;18.23;;
8252;SDS011;61313;48.396;10.008;2023-03-05T06:00:48;47.83;;;20.00;;
8252;SDS011;61313;48.396;10.008;2023-03-05T06:03:13;36.03;;;18.73;;
8252;SDS011;61313;48.396;10.008;2023-03-05T06:05:40;31.70;;;18.30;;
8252;SDS011;61313;48.396;10.008;2023-03-05T06:08:06;31.53;;;18.87;;
8252;SDS011;61313;48.396;10.008;2023-03-05T06:10:32;35.33;;;17.60;;
8252;SDS011;61313;48.396;10.008;2023-03-05T06:12:57;28.93;;;17.07;;
8252;SDS011;61313;48.396;10.008;2023-03-05T06:15:23;28.73;;;17.53;;
8252;SDS011;61313;48.396;10.008;2023-03-05T06:17:48;30.13;;;16.43;;
8252;SDS011;61313;48.396;10.008;2023-03-05T06:20:14;27.00;;;17.10;;
8252;SDS011;61313;48.396;10.008;2023-03-05T06:22:39;30.00;;;18.60;;
8252;SDS011;61313;48.396;10.008;2023-03-05T06:25:05;29.77;;;16.77;;
8252;SDS011;61313;48.396;10.008;2023-03-05T06:27:33;26.43;;;16.07;;
8252;SDS011;61313;48.396;10.008;2023-03-05T06:29:59;26.20;;;15.63;;
8252;SDS011;61313;48.396;10.008;2023-03-05T06:32:24;25.73;;;15.83;;
8252;SDS011;61313;48.396;10.008;2023-03-05T06:34:50;24.43;;;14.63;;
8252;SDS011;61313;48.396;10.008;2023-03-05T06:37:15;32.23;;;15.83;;
8252;SDS011;61313;48.396;10.008;2023-03-05T06:39:41;28.87;;;17.40;;
8252;SDS011;61313;48.396;10.008;2023-03-05T06:42:06;34.93;;;16.90;;
8252;SDS011;61313;48.396;10.008;2023-03-05T06:44:32;40.73;;;18.40;;
8252;SDS011;61313;48.396;10.008;2023-03-05T06:46:57;26.40;;;16.83;;
8252;SDS011;61313;48.396;10.008;2023-03-05T06:49:23;31.27;;;16.33;;
8252;SDS011;61313;48.396;10.008;2023-03-05T06:51:48;33.57;;;16.03;;
8252;SDS011;61313;48.396;10.008;2023-03-05T06:54:14;30.00;;;19.23;;
8252;SDS011;61313;48.396;10.008;2023-03-05T06:56:44;33.97;;;16.20;;
8252;SDS011;61313;48.396;10.008;2023-03-05T06:59:12;35.03;;;15.97;;
8252;SDS011;61313;48.396;10.008;2023-03-05T07:01:39;27.67;;;15.87;;
8252;SDS011;61313;48.396;10.008;2023-03-05T07:04:04;22.53;;;14.80;;
8252;SDS011;61313;48.396;10.008;2023-03-05T07:06:31;29.20;;;16.13;;
8252;SDS011;61313;48.396;10.008;2023-03-05T07:08:58;27.00;;;15.17;;
8252;SDS011;61313;48.396;10.008;2023-03-05T07:11:26;31.80;;;15.93;;
8252;SDS011;61313;48.396;10.008;2023-03-05T07:13:51;31.23;;;16.30;;
8252;SDS011;61313;48.396;10.008;2023-03-05T07:16:19;26.83;;;17.00;;
8252;SDS011;61313;48.396;10.008;2023-03-05T07:18:46;34.00;;;16.63;;
8252;SDS011;61313;48.396;10.008;2023-03-05T07:21:16;40.33;;;16.37;;
8252;SDS011;61313;48.396;10.008;2023-03-05T07:23:44;33.90;;;16.77;;
8252;SDS011;61313;48.396;10.008;2023-03-05T07:26:09;26.40;;;15.53;;
8252;SDS011;61313;48.396;10.008;2023-03-05T07:28:35;27.93;;;17.30;;
8252;SDS011;61313;48.396;10.008;2023-03-05T07:31:02;30.10;;;15.10;;
8252;SDS011;61313;48.396;10.008;2023-03-05T07:33:30;26.10;;;15.60;;
8252;SDS011;61313;48.396;10.008;2023-03-05T07:35:56;28.60;;;16.83;;
8252;SDS011;61313;48.396;10.008;2023-03-05T07:38:21;42.73;;;18.40;;
8252;SDS011;61313;48.396;10.008;2023-03-05T07:40:48;25.10;;;16.60;;
8252;SDS011;61313;48.396;10.008;2023-03-05T07:43:14;28.57;;;15.97;;
8252;SDS011;61313;48.396;10.008;2023-03-05T07:45:41;27.00;;;16.43;;
8252;SDS011;61313;48.396;10.008;2023-03-05T07:48:08;29.60;;;16.80;;
8252;SDS011;61313;48.396;10.008;2023-03-05T07:50:37;27.00;;;17.53;;
8252;SDS011;61313;48.396;10.008;2023-03-05T07:53:03;29.30;;;17.17;;
8252;SDS011;61313;48.396;10.008;2023-03-05T07:55:29;29.33;;;17.53;;
8252;SDS011;61313;48.396;10.008;2023-03-05T07:57:54;29.60;;;17.77;;
8252;SDS011;61313;48.396;10.008;2023-03-05T08:00:20;32.13;;;15.70;;
8252;SDS011;61313;48.396;10.008;2023-03-05T08:02:45;33.30;;;15.70;;
8252;SDS011;61313;48.396;10.008;2023-03-05T08:05:11;33.67;;;16.53;;
8252;SDS011;61313;48.396;10.008;2023-03-05T08:07:37;29.90;;;16.17;;
8252;SDS011;61313;48.396;10.008;2023-03-05T08:10:03;26.50;;;15.90;;
8252;SDS011;61313;48.396;10.008;2023-03-05T08:12:29;29.17;;;14.80;;
8252;SDS011;61313;48.396;10.008;2023-03-05T08:14:55;44.57;;;17.90;;
8252;SDS011;61313;48.396;10.008;2023-03-05T08:17:20;46.40;;;19.73;;
8252;SDS011;61313;48.396;10.008;2023-03-05T08:19:45;70.40;;;20.87;;
8252;SDS011;61313;48.396;10.008;2023-03-05T08:22:11;35.67;;;17.33;;
8252;SDS011;61313;48.396;10.008;2023-03-05T08:24:40;32.27;;;16.23;;
8252;SDS011;61313;48.396;10.008;2023-03-05T08:27:06;37.63;;;16.17;;
8252;SDS011;61313;48.396;10.008;2023-03-05T08:29:31;28.53;;;15.90;;
8252;SDS011;61313;48.396;10.008;2023-03-05T08:31:56;30.83;;;14.80;;
8252;SDS011;61313;48.396;10.008;2023-03-05T08:34:22;24.43;;;15.17;;
8252;SDS011;61313;48.396;10.008;2023-03-05T08:36:47;27.63;;;15.70;;
8252;SDS011;61313;48.396;10.008;2023-03-05T08:39:13;27.80;;;16.80;;
8252;SDS011;61313;48.396;10.008;2023-03-05T08:41:39;24.40;;;15.60;;
8252;SDS011;61313;48.396;10.008;2023-03-05T08:44:04;26.03;;;14.73;;
8252;SDS011;61313;48.396;10.008;2023-03-05T08:46:30;40.83;;;16.77;;
8252;SDS011;61313;48.396;10.008;2023-03-05T08:48:55;31.07;;;15.63;;
8252;SDS011;61313;48.396;10.008;2023-03-05T08:51:22;29.07;;;15.17;;
8252;SDS011;61313;48.396;10.008;2023-03-05T08:53:50;23.50;;;15.77;;
8252;SDS011;61313;48.396;10.008;2023-03-05T08:56:16;23.00;;;14.67;;
8252;SDS011;61313;48.396;10.008;2023-03-05T08:58:41;26.53;;;16.27;;
8252;SDS011;61313;48.396;10.008;2023-03-05T09:01:07;27.00;;;16.40;;
8252;SDS011;61313;48.396;10.008;2023-03-05T09:03:33;30.33;;;15.80;;
8252;SDS011;61313;48.396;10.008;2023-03-05T09:05:59;27.63;;;15.43;;
8252;SDS011;61313;48.396;10.008;2023-03-05T09:08:26;23.73;;;14.20;;
8252;SDS011;61313;48.396;10.008;2023-03-05T09:10:52;25.83;;;15.03;;
8252;SDS011;61313;48.396;10.008;2023-03-05T09:13:18;27.60;;;15.87;;
8252;SDS011;61313;48.396;10.008;2023-03-05T09:15:43;28.43;;;16.07;;
8252;SDS011;61313;48.396;10.008;2023-03-05T09:18:09;33.50;;;17.23;;
8252;SDS011;61313;48.396;10.008;2023-03-05T09:20:35;28.23;;;16.67;;
8252;SDS011;61313;48.396;10.008;2023-03-05T09:23:01;27.70;;;15.53;;
8252;SDS011;61313;48.396;10.008;2023-03-05T09:25:27;28.80;;;15.17;;
8252;SDS011;61313;48.396;10.008;2023-03-05T09:27:52;29.97;;;15.37;;
8252;SDS011;61313;48.396;10.008;2023-03-05T09:30:18;27.40;;;15.30;;
8252;SDS011;61313;48.396;10.008;2023-03-05T09:32:44;30.80;;;16.50;;
8252;SDS011;61313;48.396;10.008;2023-03-05T09:35:10;25.90;;;14.60;;
8252;SDS011;61313;48.396;10.008;2023-03-05T09:37:35;24.87;;;14.87;;
8252;SDS011;61313;48.396;10.008;2023-03-05T09:40:01;29.10;;;16.27;;
8252;SDS011;61313;48.396;10.008;2023-03-05T09:45:42;44.10;;;17.23;;
8252;SDS011;61313;48.396;10.008;2023-03-05T09:48:23;25.67;;;16.60;;
8252;SDS011;61313;48.396;10.008;2023-03-05T09:51:11;22.87;;;14.50;;
8252;SDS011;61313;48.396;10.008;2023-03-05T09:56:31;33.43;;;15.07;;
8252;SDS011;61313;48.396;10.008;2023-03-05T09:59:03;37.77;;;17.57;;
8252;SDS011;61313;48.396;10.008;2023-03-05T10:01:41;29.30;;;15.33;;
8252;SDS011;61313;48.396;10.008;2023-03-05T10:09:42;31.90;;;16.13;;
8252;SDS011;61313;48.396;10.008;2023-03-05T10:12:25;33.73;;;16.83;;
8252;SDS011;61313;48.396;10.008;2023-03-05T10:15:14;24.50;;;14.27;;
8252;SDS011;61313;48.396;10.008;2023-03-05T10:20:35;23.37;;;13.50;;
8252;SDS011;61313;48.396;10.008;2023-03-05T10:23:26;35.93;;;19.07;;
8252;SDS011;61313;48.396;10.008;2023-03-05T10:42:57;30.40;;;12.90;;
8252;SDS011;61313;48.396;10.008;2023-03-05T10:45:35;40.27;;;13.40;;
8252;SDS011;61313;48.396;10.008;2023-03-05T10:48:15;31.63;;;14.97;;
8252;SDS011;61313;48.396;10.008;2023-03-05T10:50:52;25.02;;;13.35;;
8252;SDS011;61313;48.396;10.008;2023-03-05T10:53:31;26.57;;;12.93;;
8252;SDS011;61313;48.396;10.008;2023-03-05T10:56:03;30.63;;;13.53;;
8252;SDS011;61313;48.396;10.008;2023-03-05T10:58:29;17.70;;;10.60;;
8252;SDS011;61313;48.396;10.008;2023-03-05T11:06:49;21.93;;;10.50;;
8252;SDS011;61313;48.396;10.008;2023-03-05T11:11:42;18.50;;;11.27;;
8252;SDS011;61313;48.396;10.008;2023-03-05T11:14:22;22.70;;;11.10;;
8252;SDS011;61313;48.396;10.008;2023-03-05T11:16:54;32.70;;;16.13;;
8252;SDS011;61313;48.396;10.008;2023-03-05T11:19:28;22.93;;;10.70;;
8252;SDS011;61313;48.396;10.008;2023-03-05T11:24:35;18.97;;;9.87;;
8252;SDS011;61313;48.396;10.008;2023-03-05T11:27:01;18.53;;;10.03;;
8252;SDS011;61313;48.396;10.008;2023-03-05T11:29:48;12.67;;;8.30;;
8252;SDS011;61313;48.396;10.008;2023-03-05T11:32:15;18.70;;;9.03;;
8252;SDS011;61313;48.396;10.008;2023-03-05T11:34:44;12.60;;;8.57;;
8252;SDS011;61313;48.396;10.008;2023-03-05T11:37:17;15.87;;;9.53;;
8252;SDS011;61313;48.396;10.008;2023-03-05T11:39:49;15.77;;;9.90;;
8252;SDS011;61313;48.396;10.008;2023-03-05T11:42:36;20.23;;;10.10;;
8252;SDS011;61313;48.396;10.008;2023-03-05T11:48:07;12.00;;;8.67;;
8252;SDS011;61313;48.396;10.008;2023-03-05T11:50:37;16.60;;;9.93;;
8252;SDS011;61313;48.396;10.008;2023-03-05T11:53:06;22.67;;;9.93;;
8252;SDS011;61313;48.396;10.008;2023-03-05T12:00:40;14.17;;;9.43;;
8252;SDS011;61313;48.396;10.008;2023-03-05T12:03:13;16.57;;;10.67;;
8252;SDS011;61313;48.396;10.008;2023-03-05T12:05:42;16.10;;;8.57;;
8252;SDS011;61313;48.396;10.008;2023-03-05T12:08:13;17.20;;;9.13;;
8252;SDS011;61313;48.396;10.008;2023-03-05T12:10:43;14.03;;;9.13;;
8252;SDS011;61313;48.396;10.008;2023-03-05T12:13:11;16.90;;;10.00;;
8252;SDS011;61313;48.396;10.008;2023-03-05T12:16:07;20.47;;;9.30;;
8252;SDS011;61313;48.396;10.008;2023-03-05T12:21:47;20.70;;;9.83;;
8252;SDS011;61313;48.396;10.008;2023-03-05T12:29:37;19.30;;;11.37;;
8252;SDS011;61313;48.396;10.008;2023-03-05T12:32:51;32.27;;;16.30;;
8252;SDS011;61313;48.396;10.008;2023-03-05T12:34:56;13.13;;;8.93;;
8252;SDS011;61313;48.396;10.008;2023-03-05T12:39:57;12.77;;;9.47;;
8252;SDS011;61313;48.396;10.008;2023-03-05T12:52:51;11.73;;;7.80;;
8252;SDS011;61313;48.396;10.008;2023-03-05T12:58:00;100.67;;;20.50;;
8252;SDS011;61313;48.396;10.008;2023-03-05T13:00:48;25.70;;;10.63;;
8252;SDS011;61313;48.396;10.008;2023-03-05T13:03:28;13.40;;;9.37;;
8252;SDS011;61313;48.396;10.008;2023-03-05T13:05:58;20.03;;;8.07;;
8252;SDS011;61313;48.396;10.008;2023-03-05T13:11:19;13.00;;;8.10;;
8252;SDS011;61313;48.396;10.008;2023-03-05T13:13:45;14.03;;;8.60;;
8252;SDS011;61313;48.396;10.008;2023-03-05T13:16:19;13.90;;;8.83;;
8252;SDS011;61313;48.396;10.008;2023-03-05T13:18:48;14.17;;;8.57;;
8252;SDS011;61313;48.396;10.008;2023-03-05T13:21:16;14.70;;;9.27;;
8252;SDS011;61313;48.396;10.008;2023-03-05T13:24:16;18.60;;;9.63;;
8252;SDS011;61313;48.396;10.008;2023-03-05T13:26:41;15.87;;;9.03;;
8252;SDS011;61313;48.396;10.008;2023-03-05T13:31:45;29.97;;;10.67;;
8252;SDS011;61313;48.396;10.008;2023-03-05T13:37:18;16.27;;;9.23;;
8252;SDS011;61313;48.396;10.008;2023-03-05T13:39:48;11.67;;;7.77;;
8252;SDS011;61313;48.396;10.008;2023-03-05T13:42:28;16.63;;;8.50;;
8252;SDS011;61313;48.396;10.008;2023-03-05T13:44:58;17.47;;;9.60;;
8252;SDS011;61313;48.396;10.008;2023-03-05T13:47:26;16.60;;;9.90;;
8252;SDS011;61313;48.396;10.008;2023-03-05T13:49:55;13.50;;;8.00;;
8252;SDS011;61313;48.396;10.008;2023-03-05T13:52:24;15.80;;;10.10;;
8252;SDS011;61313;48.396;10.008;2023-03-05T13:54:58;13.77;;;10.60;;
8252;SDS011;61313;48.396;10.008;2023-03-05T13:57:38;16.70;;;9.63;;
8252;SDS011;61313;48.396;10.008;2023-03-05T14:00:06;16.03;;;10.50;;
8252;SDS011;61313;48.396;10.008;2023-03-05T14:05:35;18.17;;;9.63;;
8252;SDS011;61313;48.396;10.008;2023-03-05T14:08:00;18.73;;;10.37;;
8252;SDS011;61313;48.396;10.008;2023-03-05T14:12:58;19.30;;;10.30;;
8252;SDS011;61313;48.396;10.008;2023-03-05T14:15:28;16.33;;;9.90;;
8252;SDS011;61313;48.396;10.008;2023-03-05T14:20:32;25.33;;;10.87;;
8252;SDS011;61313;48.396;10.008;2023-03-05T14:22:59;14.10;;;9.43;;
8252;SDS011;61313;48.396;10.008;2023-03-05T14:27:54;51.77;;;14.73;;
8252;SDS011;61313;48.396;10.008;2023-03-05T14:30:20;30.20;;;11.57;;
8252;SDS011;61313;48.396;10.008;2023-03-05T14:32:48;22.17;;;10.87;;
8252;SDS011;61313;48.396;10.008;2023-03-05T14:35:16;16.73;;;11.17;;
8252;SDS011;61313;48.396;10.008;2023-03-05T14:37:47;20.70;;;10.93;;
8252;SDS011;61313;48.396;10.008;2023-03-05T14:42:59;27.37;;;15.90;;
8252;SDS011;61313;48.396;10.008;2023-03-05T14:45:33;19.40;;;10.37;;
8252;SDS011;61313;48.396;10.008;2023-03-05T14:48:01;21.47;;;12.07;;
8252;SDS011;61313;48.396;10.008;2023-03-05T14:50:31;22.17;;;10.77;;
8252;SDS011;61313;48.396;10.008;2023-03-05T14:52:57;17.87;;;10.10;;
8252;SDS011;61313;48.396;10.008;2023-03-05T14:55:26;17.90;;;10.10;;
8252;SDS011;61313;48.396;10.008;2023-03-05T14:57:56;16.93;;;10.47;;
8252;SDS011;61313;48.396;10.008;2023-03-05T15:00:29;15.53;;;10.93;;
8252;SDS011;61313;48.396;10.008;2023-03-05T15:02:55;15.23;;;9.60;;
8252;SDS011;61313;48.396;10.008;2023-03-05T15:05:22;13.90;;;10.27;;
8252;SDS011;61313;48.396;10.008;2023-03-05T15:07:47;54.63;;;15.63;;
8252;SDS011;61313;48.396;10.008;2023-03-05T15:10:15;27.83;;;12.33;;
8252;SDS011;61313;48.396;10.008;2023-03-05T15:12:45;24.40;;;12.27;;
8252;SDS011;61313;48.396;10.008;2023-03-05T15:15:13;16.17;;;10.30;;
8252;SDS011;61313;48.396;10.008;2023-03-05T15:17:40;14.83;;;10.30;;
8252;SDS011;61313;48.396;10.008;2023-03-05T15:20:08;15.03;;;10.43;;
8252;SDS011;61313;48.396;10.008;2023-03-05T15:22:38;27.70;;;11.60;;
8252;SDS011;61313;48.396;10.008;2023-03-05T15:25:03;19.43;;;10.80;;
8252;SDS011;61313;48.396;10.008;2023-03-05T15:27:29;14.63;;;9.27;;
8252;SDS011;61313;48.396;10.008;2023-03-05T15:29:54;24.20;;;11.23;;
8252;SDS011;61313;48.396;10.008;2023-03-05T15:32:20;16.37;;;11.30;;
8252;SDS011;61313;48.396;10.008;2023-03-05T15:34:45;19.53;;;12.73;;
8252;SDS011;61313;48.396;10.008;2023-03-05T15:37:11;18.13;;;10.83;;
8252;SDS011;61313;48.396;10.008;2023-03-05T15:39:36;20.20;;;10.50;;
8252;SDS011;61313;48.396;10.008;2023-03-05T15:42:02;19.60;;;11.97;;
8252;SDS011;61313;48.396;10.008;2023-03-05T15:44:27;23.67;;;12.37;;
8252;SDS011;61313;48.396;10.008;2023-03-05T15:46:53;16.13;;;11.30;;
8252;SDS011;61313;48.396;10.008;2023-03-05T15:49:20;25.00;;;11.10;;
8252;SDS011;61313;48.396;10.008;2023-03-05T15:51:48;21.67;;;13.63;;
8252;SDS011;61313;48.396;10.008;2023-03-05T15:54:14;20.77;;;11.67;;
8252;SDS011;61313;48.396;10.008;2023-03-05T15:56:39;21.97;;;11.37;;
8252;SDS011;61313;48.396;10.008;2023-03-05T15:59:06;15.40;;;10.23;;
8252;SDS011;61313;48.396;10.008;2023-03-05T16:01:34;26.23;;;13.30;;
8252;SDS011;61313;48.396;10.008;2023-03-05T16:04:00;16.53;;;12.00;;
8252;SDS011;61313;48.396;10.008;2023-03-05T16:06:26;50.40;;;15.50;;